sensor_id;sensor_type;location;lat;lon;timestamp;temperature;humidity
25188;DHT22;13141;50.414;8.050;2023-01-15T00:00:59;11.10;99.90
25188;DHT22;13141;50.414;8.050;2023-01-15T00:03:25;11.10;99.90
25188;DHT22;13141;50.414;8.050;2023-01-15T00:05:51;11.20;99.90
25188;DHT22;13141;50.414;8.050;2023-01-15T00:08:16;11.00;99.90
25188;DHT22;13141;50.414;8.050;2023-01-15T00:10:42;11.10;99.90
25188;DHT22;13141;50.414;8.050;2023-01-15T00:13:08;11.00;99.90
25188;DHT22;13141;50.414;8.050;2023-01-15T00:15:34;11.00;99.90
25188;DHT22;13141;50.414;8.050;2023-01-15T00:18:00;11.10;99.90
25188;DHT22;13141;50.414;8.050;2023-01-15T00:20:26;11.00;99.90
25188;DHT22;13141;50.414;8.050;2023-01-15T00:22:52;11.00;99.90
25188;DHT22;13141;50.414;8.050;2023-01-15T00:25:18;10.90;99.90
25188;DHT22;13141;50.414;8.050;2023-01-15T00:28:02;11.00;99.90
25188;DHT22;13141;50.414;8.050;2023-01-15T00:30:28;10.90;99.90
25188;DHT22;13141;50.414;8.050;2023-01-15T00:32:53;10.90;99.90
25188;DHT22;13141;50.414;8.050;2023-01-15T00:35:21;11.00;99.90
25188;DHT22;13141;50.414;8.050;2023-01-15T00:37:48;10.80;99.90
25188;DHT22;13141;50.414;8.050;2023-01-15T00:40:15;10.80;99.90
25188;DHT22;13141;50.414;8.050;2023-01-15T00:42:41;10.90;99.90
25188;DHT22;13141;50.414;8.050;2023-01-15T00:45:07;10.80;99.90
25188;DHT22;13141;50.414;8.050;2023-01-15T00:47:41;10.80;99.90
25188;DHT22;13141;50.414;8.050;2023-01-15T00:50:10;10.80;99.90
25188;DHT22;13141;50.414;8.050;2023-01-15T00:52:36;10.80;99.90
25188;DHT22;13141;50.414;8.050;2023-01-15T00:55:02;10.90;99.90
25188;DHT22;13141;50.414;8.050;2023-01-15T00:57:28;10.70;99.90
25188;DHT22;13141;50.414;8.050;2023-01-15T00:59:53;10.60;99.90
25188;DHT22;13141;50.414;8.050;2023-01-15T01:02:19;10.40;99.90
25188;DHT22;13141;50.414;8.050;2023-01-15T01:04:45;10.20;99.90
25188;DHT22;13141;50.414;8.050;2023-01-15T01:07:11;10.00;99.90
25188;DHT22;13141;50.414;8.050;2023-01-15T01:09:37;10.00;99.90
25188;DHT22;13141;50.414;8.050;2023-01-15T01:12:03;9.80;99.90
25188;DHT22;13141;50.414;8.050;2023-01-15T01:14:29;9.70;99.90
25188;DHT22;13141;50.414;8.050;2023-01-15T01:16:55;9.70;99.90
25188;DHT22;13141;50.414;8.050;2023-01-15T01:19:22;9.80;99.90
25188;DHT22;13141;50.414;8.050;2023-01-15T01:21:49;9.60;99.90
25188;DHT22;13141;50.414;8.050;2023-01-15T01:24:17;9.50;99.90
25188;DHT22;13141;50.414;8.050;2023-01-15T01:26:44;9.70;99.90
25188;DHT22;13141;50.414;8.050;2023-01-15T01:29:15;9.50;99.90
25188;DHT22;13141;50.414;8.050;2023-01-15T01:31:41;9.70;99.90
25188;DHT22;13141;50.414;8.050;2023-01-15T01:34:08;9.50;99.90
25188;DHT22;13141;50.414;8.050;2023-01-15T01:36:36;9.60;99.90
25188;DHT22;13141;50.414;8.050;2023-01-15T01:39:03;9.40;99.90
25188;DHT22;13141;50.414;8.050;2023-01-15T01:41:29;9.60;99.90
25188;DHT22;13141;50.414;8.050;2023-01-15T01:43:57;9.00;99.90
25188;DHT22;13141;50.414;8.050;2023-01-15T01:46:23;9.50;99.90
25188;DHT22;13141;50.414;8.050;2023-01-15T01:49:10;9.50;99.90
25188;DHT22;13141;50.414;8.050;2023-01-15T01:51:40;9.40;99.90
25188;DHT22;13141;50.414;8.050;2023-01-15T01:54:08;9.40;99.90
25188;DHT22;13141;50.414;8.050;2023-01-15T01:56:35;9.30;99.90
25188;DHT22;13141;50.414;8.050;2023-01-15T01:59:03;9.10;99.90
25188;DHT22;13141;50.414;8.050;2023-01-15T02:01:29;9.20;99.90
25188;DHT22;13141;50.414;8.050;2023-01-15T02:03:55;9.10;99.90
25188;DHT22;13141;50.414;8.050;2023-01-15T02:06:23;8.80;99.90
25188;DHT22;13141;50.414;8.050;2023-01-15T02:08:50;9.00;99.90
25188;DHT22;13141;50.414;8.050;2023-01-15T02:11:19;9.00;99.90
25188;DHT22;13141;50.414;8.050;2023-01-15T02:13:59;9.00;99.90
25188;DHT22;13141;50.414;8.050;2023-01-15T02:16:35;8.80;99.90
25188;DHT22;13141;50.414;8.050;2023-01-15T02:19:39;8.70;99.90
25188;DHT22;13141;50.414;8.050;2023-01-15T02:22:44;8.60;99.90
25188;DHT22;13141;50.414;8.050;2023-01-15T02:28:23;8.50;99.90
25188;DHT22;13141;50.414;8.050;2023-01-15T02:30:59;8.50;99.90
25188;DHT22;13141;50.414;8.050;2023-01-15T02:33:32;8.50;99.90
25188;DHT22;13141;50.414;8.050;2023-01-15T02:35:59;8.40;99.90
25188;DHT22;13141;50.414;8.050;2023-01-15T02:38:29;8.40;99.90
25188;DHT22;13141;50.414;8.050;2023-01-15T02:40:59;8.40;99.90
25188;DHT22;13141;50.414;8.050;2023-01-15T02:43:28;8.30;99.90
25188;DHT22;13141;50.414;8.050;2023-01-15T02:45:57;8.20;99.90
25188;DHT22;13141;50.414;8.050;2023-01-15T02:48:27;8.10;99.90
25188;DHT22;13141;50.414;8.050;2023-01-15T02:51:02;8.10;99.90
25188;DHT22;13141;50.414;8.050;2023-01-15T02:53:30;7.90;99.90
25188;DHT22;13141;50.414;8.050;2023-01-15T02:56:02;7.90;99.90
25188;DHT22;13141;50.414;8.050;2023-01-15T02:58:31;7.90;99.90
25188;DHT22;13141;50.414;8.050;2023-01-15T03:01:00;8.00;99.90
25188;DHT22;13141;50.414;8.050;2023-01-15T03:08:36;7.80;99.90
25188;DHT22;13141;50.414;8.050;2023-01-15T03:11:10;7.90;99.90
25188;DHT22;13141;50.414;8.050;2023-01-15T03:14:03;7.80;99.90
25188;DHT22;13141;50.414;8.050;2023-01-15T03:16:38;7.70;99.90
25188;DHT22;13141;50.414;8.050;2023-01-15T03:19:29;7.60;99.90
25188;DHT22;13141;50.414;8.050;2023-01-15T03:22:22;7.60;99.90
25188;DHT22;13141;50.414;8.050;2023-01-15T03:24:56;7.50;99.90
25188;DHT22;13141;50.414;8.050;2023-01-15T03:27:24;7.50;99.90
25188;DHT22;13141;50.414;8.050;2023-01-15T03:30:04;7.40;99.90
25188;DHT22;13141;50.414;8.050;2023-01-15T03:32:30;7.40;99.90
25188;DHT22;13141;50.414;8.050;2023-01-15T03:34:56;7.50;99.90
25188;DHT22;13141;50.414;8.050;2023-01-15T03:37:23;7.50;99.90
25188;DHT22;13141;50.414;8.050;2023-01-15T03:39:50;7.30;99.90
25188;DHT22;13141;50.414;8.050;2023-01-15T03:44:51;7.20;99.90
25188;DHT22;13141;50.414;8.050;2023-01-15T03:52:47;7.20;99.90
25188;DHT22;13141;50.414;8.050;2023-01-15T03:55:19;7.20;99.90
25188;DHT22;13141;50.414;8.050;2023-01-15T03:57:50;7.20;99.90
25188;DHT22;13141;50.414;8.050;2023-01-15T04:00:32;7.20;99.90
25188;DHT22;13141;50.414;8.050;2023-01-15T04:03:01;7.20;99.90
25188;DHT22;13141;50.414;8.050;2023-01-15T04:05:28;7.20;99.90
25188;DHT22;13141;50.414;8.050;2023-01-15T04:07:56;7.20;99.90
25188;DHT22;13141;50.414;8.050;2023-01-15T04:10:22;7.10;99.90
25188;DHT22;13141;50.414;8.050;2023-01-15T04:12:47;7.10;99.90
25188;DHT22;13141;50.414;8.050;2023-01-15T04:15:14;7.20;99.90
25188;DHT22;13141;50.414;8.050;2023-01-15T04:17:41;7.20;99.90
25188;DHT22;13141;50.414;8.050;2023-01-15T04:20:08;7.10;99.90
25188;DHT22;13141;50.414;8.050;2023-01-15T04:22:34;7.10;99.90
25188;DHT22;13141;50.414;8.050;2023-01-15T04:25:04;7.20;99.90
25188;DHT22;13141;50.414;8.050;2023-01-15T04:27:30;7.00;99.90
25188;DHT22;13141;50.414;8.050;2023-01-15T04:29:56;7.10;99.90
25188;DHT22;13141;50.414;8.050;2023-01-15T04:32:21;6.90;99.90
25188;DHT22;13141;50.414;8.050;2023-01-15T04:34:48;7.00;99.90
25188;DHT22;13141;50.414;8.050;2023-01-15T04:40:09;6.80;99.90
25188;DHT22;13141;50.414;8.050;2023-01-15T04:42:55;6.80;99.90
25188;DHT22;13141;50.414;8.050;2023-01-15T04:45:39;6.80;99.90
25188;DHT22;13141;50.414;8.050;2023-01-15T04:48:07;6.60;99.90
25188;DHT22;13141;50.414;8.050;2023-01-15T04:50:32;6.60;99.90
25188;DHT22;13141;50.414;8.050;2023-01-15T04:52:58;6.60;99.90
25188;DHT22;13141;50.414;8.050;2023-01-15T04:55:23;6.70;99.90
25188;DHT22;13141;50.414;8.050;2023-01-15T04:57:49;6.60;99.90
25188;DHT22;13141;50.414;8.050;2023-01-15T05:00:15;6.60;99.90
25188;DHT22;13141;50.414;8.050;2023-01-15T05:02:41;6.60;99.90
25188;DHT22;13141;50.414;8.050;2023-01-15T05:05:07;6.50;99.90
25188;DHT22;13141;50.414;8.050;2023-01-15T05:07:33;6.50;99.90
25188;DHT22;13141;50.414;8.050;2023-01-15T05:09:58;6.50;99.90
25188;DHT22;13141;50.414;8.050;2023-01-15T05:12:24;6.40;99.90
25188;DHT22;13141;50.414;8.050;2023-01-15T05:14:50;6.40;99.90
25188;DHT22;13141;50.414;8.050;2023-01-15T05:17:16;6.40;99.90
25188;DHT22;13141;50.414;8.050;2023-01-15T05:19:41;6.40;99.90
25188;DHT22;13141;50.414;8.050;2023-01-15T05:22:07;6.40;99.90
25188;DHT22;13141;50.414;8.050;2023-01-15T05:24:34;6.30;99.90
25188;DHT22;13141;50.414;8.050;2023-01-15T05:26:59;6.20;99.90
25188;DHT22;13141;50.414;8.050;2023-01-15T05:29:25;6.10;99.90
25188;DHT22;13141;50.414;8.050;2023-01-15T05:31:50;5.90;99.90
25188;DHT22;13141;50.414;8.050;2023-01-15T05:34:16;5.90;99.90
25188;DHT22;13141;50.414;8.050;2023-01-15T05:36:42;5.90;99.90
25188;DHT22;13141;50.414;8.050;2023-01-15T05:39:08;5.80;99.90
25188;DHT22;13141;50.414;8.050;2023-01-15T05:41:33;5.70;99.90
25188;DHT22;13141;50.414;8.050;2023-01-15T05:44:21;5.70;99.90
25188;DHT22;13141;50.414;8.050;2023-01-15T05:46:48;5.70;99.90
25188;DHT22;13141;50.414;8.050;2023-01-15T05:49:17;5.60;99.90
25188;DHT22;13141;50.414;8.050;2023-01-15T05:51:43;5.60;99.90
25188;DHT22;13141;50.414;8.050;2023-01-15T05:54:20;5.60;99.90
25188;DHT22;13141;50.414;8.050;2023-01-15T05:56:46;5.50;99.90
25188;DHT22;13141;50.414;8.050;2023-01-15T05:59:14;5.50;99.90
25188;DHT22;13141;50.414;8.050;2023-01-15T06:01:40;5.50;99.90
25188;DHT22;13141;50.414;8.050;2023-01-15T06:04:06;5.40;99.90
25188;DHT22;13141;50.414;8.050;2023-01-15T06:06:32;5.40;99.90
25188;DHT22;13141;50.414;8.050;2023-01-15T06:08:59;5.40;99.90
25188;DHT22;13141;50.414;8.050;2023-01-15T06:11:24;5.40;99.90
25188;DHT22;13141;50.414;8.050;2023-01-15T06:13:50;5.40;99.90
25188;DHT22;13141;50.414;8.050;2023-01-15T06:16:15;5.30;99.90
25188;DHT22;13141;50.414;8.050;2023-01-15T06:18:42;5.30;99.90
25188;DHT22;13141;50.414;8.050;2023-01-15T06:21:10;5.40;99.90
25188;DHT22;13141;50.414;8.050;2023-01-15T06:23:36;5.40;99.90
25188;DHT22;13141;50.414;8.050;2023-01-15T06:26:04;5.50;99.90
25188;DHT22;13141;50.414;8.050;2023-01-15T06:28:30;5.40;99.90
25188;DHT22;13141;50.414;8.050;2023-01-15T06:30:56;5.30;99.90
25188;DHT22;13141;50.414;8.050;2023-01-15T06:33:22;5.40;99.90
25188;DHT22;13141;50.414;8.050;2023-01-15T06:35:48;5.50;99.90
25188;DHT22;13141;50.414;8.050;2023-01-15T06:38:13;5.50;99.90
25188;DHT22;13141;50.414;8.050;2023-01-15T06:40:39;5.50;99.90
25188;DHT22;13141;50.414;8.050;2023-01-15T06:43:04;5.70;99.90
25188;DHT22;13141;50.414;8.050;2023-01-15T06:45:48;5.50;99.90
25188;DHT22;13141;50.414;8.050;2023-01-15T06:48:49;5.50;99.90
25188;DHT22;13141;50.414;8.050;2023-01-15T06:51:15;5.40;99.90
25188;DHT22;13141;50.414;8.050;2023-01-15T06:53:45;5.40;99.90
25188;DHT22;13141;50.414;8.050;2023-01-15T06:56:12;5.40;99.90
25188;DHT22;13141;50.414;8.050;2023-01-15T06:58:39;5.40;99.90
25188;DHT22;13141;50.414;8.050;2023-01-15T07:01:13;5.40;99.90
25188;DHT22;13141;50.414;8.050;2023-01-15T07:03:39;5.40;99.90
25188;DHT22;13141;50.414;8.050;2023-01-15T07:06:09;5.40;99.90
25188;DHT22;13141;50.414;8.050;2023-01-15T07:08:35;5.40;99.90
25188;DHT22;13141;50.414;8.050;2023-01-15T07:11:06;5.40;99.90
25188;DHT22;13141;50.414;8.050;2023-01-15T07:13:33;5.40;99.90
25188;DHT22;13141;50.414;8.050;2023-01-15T07:16:00;5.40;99.90
25188;DHT22;13141;50.414;8.050;2023-01-15T07:18:28;5.30;99.90
25188;DHT22;13141;50.414;8.050;2023-01-15T07:20:55;5.20;99.90
25188;DHT22;13141;50.414;8.050;2023-01-15T07:23:22;5.20;99.90
25188;DHT22;13141;50.414;8.050;2023-01-15T07:25:48;5.30;99.90
25188;DHT22;13141;50.414;8.050;2023-01-15T07:28:14;5.30;99.90
25188;DHT22;13141;50.414;8.050;2023-01-15T07:30:39;5.30;99.90
25188;DHT22;13141;50.414;8.050;2023-01-15T07:33:05;5.30;99.90
25188;DHT22;13141;50.414;8.050;2023-01-15T07:35:31;5.20;99.90
25188;DHT22;13141;50.414;8.050;2023-01-15T07:37:57;5.20;99.90
25188;DHT22;13141;50.414;8.050;2023-01-15T07:40:22;5.30;99.90
25188;DHT22;13141;50.414;8.050;2023-01-15T07:42:48;5.30;99.90
25188;DHT22;13141;50.414;8.050;2023-01-15T07:45:32;5.30;99.90
25188;DHT22;13141;50.414;8.050;2023-01-15T07:48:29;5.30;99.90
25188;DHT22;13141;50.414;8.050;2023-01-15T07:51:13;5.40;99.90
25188;DHT22;13141;50.414;8.050;2023-01-15T07:53:39;5.40;99.90
25188;DHT22;13141;50.414;8.050;2023-01-15T07:56:05;5.40;99.90
25188;DHT22;13141;50.414;8.050;2023-01-15T07:58:30;5.40;99.90
25188;DHT22;13141;50.414;8.050;2023-01-15T08:00:56;5.40;99.90
25188;DHT22;13141;50.414;8.050;2023-01-15T08:03:21;5.40;99.90
25188;DHT22;13141;50.414;8.050;2023-01-15T08:05:47;5.50;99.90
25188;DHT22;13141;50.414;8.050;2023-01-15T08:08:16;5.50;99.90
25188;DHT22;13141;50.414;8.050;2023-01-15T08:10:42;5.50;99.90
25188;DHT22;13141;50.414;8.050;2023-01-15T08:13:26;5.50;99.90
25188;DHT22;13141;50.414;8.050;2023-01-15T08:16:11;5.50;99.90
25188;DHT22;13141;50.414;8.050;2023-01-15T08:18:37;5.50;99.90
25188;DHT22;13141;50.414;8.050;2023-01-15T08:21:03;5.50;99.90
25188;DHT22;13141;50.414;8.050;2023-01-15T08:23:29;5.50;99.90
25188;DHT22;13141;50.414;8.050;2023-01-15T08:25:58;5.40;99.90
25188;DHT22;13141;50.414;8.050;2023-01-15T08:28:24;5.50;99.90
25188;DHT22;13141;50.414;8.050;2023-01-15T08:30:50;5.50;99.90
25188;DHT22;13141;50.414;8.050;2023-01-15T08:33:15;5.50;99.90
25188;DHT22;13141;50.414;8.050;2023-01-15T08:35:41;5.50;99.90
25188;DHT22;13141;50.414;8.050;2023-01-15T08:38:06;5.50;99.90
25188;DHT22;13141;50.414;8.050;2023-01-15T08:40:33;5.50;99.90
25188;DHT22;13141;50.414;8.050;2023-01-15T08:43:00;5.50;99.90
25188;DHT22;13141;50.414;8.050;2023-01-15T08:45:26;5.60;99.90
25188;DHT22;13141;50.414;8.050;2023-01-15T08:47:55;5.60;99.90
25188;DHT22;13141;50.414;8.050;2023-01-15T08:50:24;5.60;99.90
25188;DHT22;13141;50.414;8.050;2023-01-15T08:52:50;5.50;99.90
25188;DHT22;13141;50.414;8.050;2023-01-15T08:55:15;5.60;99.90
25188;DHT22;13141;50.414;8.050;2023-01-15T08:57:41;5.60;99.90
25188;DHT22;13141;50.414;8.050;2023-01-15T09:00:08;5.70;99.90
25188;DHT22;13141;50.414;8.050;2023-01-15T09:02:34;5.70;99.90
25188;DHT22;13141;50.414;8.050;2023-01-15T09:04:59;5.60;99.90
25188;DHT22;13141;50.414;8.050;2023-01-15T09:07:25;5.80;99.90
25188;DHT22;13141;50.414;8.050;2023-01-15T09:09:50;5.90;99.90
25188;DHT22;13141;50.414;8.050;2023-01-15T09:12:16;5.90;99.90
25188;DHT22;13141;50.414;8.050;2023-01-15T09:14:41;5.90;99.90
25188;DHT22;13141;50.414;8.050;2023-01-15T09:17:07;6.00;99.90
25188;DHT22;13141;50.414;8.050;2023-01-15T09:19:32;6.10;99.90
25188;DHT22;13141;50.414;8.050;2023-01-15T09:21:58;6.10;99.90
25188;DHT22;13141;50.414;8.050;2023-01-15T09:24:23;6.10;99.90
25188;DHT22;13141;50.414;8.050;2023-01-15T09:26:49;6.10;99.90
25188;DHT22;13141;50.414;8.050;2023-01-15T09:29:17;6.10;99.90
25188;DHT22;13141;50.414;8.050;2023-01-15T09:31:43;6.10;99.90
25188;DHT22;13141;50.414;8.050;2023-01-15T09:34:08;6.20;99.90
25188;DHT22;13141;50.414;8.050;2023-01-15T09:36:35;6.20;99.90
25188;DHT22;13141;50.414;8.050;2023-01-15T09:39:02;6.30;99.90
25188;DHT22;13141;50.414;8.050;2023-01-15T09:47:29;6.30;99.90
25188;DHT22;13141;50.414;8.050;2023-01-15T09:53:05;6.40;99.90
25188;DHT22;13141;50.414;8.050;2023-01-15T09:55:41;6.40;99.90
25188;DHT22;13141;50.414;8.050;2023-01-15T09:58:10;6.40;99.90
25188;DHT22;13141;50.414;8.050;2023-01-15T10:00:39;6.50;99.90
25188;DHT22;13141;50.414;8.050;2023-01-15T10:06:32;6.40;99.90
25188;DHT22;13141;50.414;8.050;2023-01-15T10:09:07;6.50;99.90
25188;DHT22;13141;50.414;8.050;2023-01-15T10:11:44;6.40;99.90
25188;DHT22;13141;50.414;8.050;2023-01-15T10:14:39;6.40;99.90
25188;DHT22;13141;50.414;8.050;2023-01-15T10:17:21;6.50;99.90
25188;DHT22;13141;50.414;8.050;2023-01-15T10:19:49;6.50;99.90
25188;DHT22;13141;50.414;8.050;2023-01-15T10:24:56;6.40;99.90
25188;DHT22;13141;50.414;8.050;2023-01-15T10:27:24;6.60;99.90
25188;DHT22;13141;50.414;8.050;2023-01-15T10:30:23;6.40;99.90
25188;DHT22;13141;50.414;8.050;2023-01-15T10:32:49;6.40;99.90
25188;DHT22;13141;50.414;8.050;2023-01-15T10:43:24;6.50;99.90
25188;DHT22;13141;50.414;8.050;2023-01-15T10:46:06;6.50;99.90
25188;DHT22;13141;50.414;8.050;2023-01-15T10:48:47;6.60;99.90
25188;DHT22;13141;50.414;8.050;2023-01-15T10:51:20;6.60;99.90
25188;DHT22;13141;50.414;8.050;2023-01-15T10:53:53;6.60;99.90
25188;DHT22;13141;50.414;8.050;2023-01-15T10:56:46;6.90;99.90
25188;DHT22;13141;50.414;8.050;2023-01-15T10:59:20;7.10;99.90
25188;DHT22;13141;50.414;8.050;2023-01-15T11:01:51;7.20;99.90
25188;DHT22;13141;50.414;8.050;2023-01-15T11:04:18;7.20;99.90
25188;DHT22;13141;50.414;8.050;2023-01-15T11:06:43;7.20;99.90
25188;DHT22;13141;50.414;8.050;2023-01-15T11:09:21;7.30;99.90
25188;DHT22;13141;50.414;8.050;2023-01-15T11:11:53;7.30;99.90
25188;DHT22;13141;50.414;8.050;2023-01-15T11:17:19;7.20;99.90
25188;DHT22;13141;50.414;8.050;2023-01-15T11:20:15;7.20;99.90
25188;DHT22;13141;50.414;8.050;2023-01-15T11:22:42;7.30;99.90
25188;DHT22;13141;50.414;8.050;2023-01-15T11:25:08;7.30;99.90
25188;DHT22;13141;50.414;8.050;2023-01-15T11:27:36;7.50;99.90
25188;DHT22;13141;50.414;8.050;2023-01-15T11:30:06;7.40;99.90
25188;DHT22;13141;50.414;8.050;2023-01-15T11:32:34;7.40;99.90
25188;DHT22;13141;50.414;8.050;2023-01-15T11:35:13;7.50;99.90
25188;DHT22;13141;50.414;8.050;2023-01-15T11:37:39;7.60;99.90
25188;DHT22;13141;50.414;8.050;2023-01-15T11:40:14;7.60;99.90
25188;DHT22;13141;50.414;8.050;2023-01-15T11:42:45;8.00;99.90
25188;DHT22;13141;50.414;8.050;2023-01-15T11:45:29;8.20;99.90
25188;DHT22;13141;50.414;8.050;2023-01-15T11:48:15;8.70;99.90
25188;DHT22;13141;50.414;8.050;2023-01-15T11:51:08;9.30;99.90
25188;DHT22;13141;50.414;8.050;2023-01-15T11:53:42;9.40;99.90
25188;DHT22;13141;50.414;8.050;2023-01-15T11:56:14;9.50;99.90
25188;DHT22;13141;50.414;8.050;2023-01-15T11:58:49;9.50;99.90
25188;DHT22;13141;50.414;8.050;2023-01-15T12:01:31;9.50;99.90
25188;DHT22;13141;50.414;8.050;2023-01-15T12:04:05;9.80;99.90
25188;DHT22;13141;50.414;8.050;2023-01-15T12:06:34;9.90;99.90
25188;DHT22;13141;50.414;8.050;2023-01-15T12:09:05;10.20;99.90
25188;DHT22;13141;50.414;8.050;2023-01-15T12:11:53;10.30;99.90
25188;DHT22;13141;50.414;8.050;2023-01-15T12:25:37;10.30;99.90
25188;DHT22;13141;50.414;8.050;2023-01-15T12:28:25;10.00;99.90
25188;DHT22;13141;50.414;8.050;2023-01-15T12:36:01;9.80;99.60
25188;DHT22;13141;50.414;8.050;2023-01-15T12:41:37;10.10;99.70
25188;DHT22;13141;50.414;8.050;2023-01-15T12:44:46;10.40;99.20
25188;DHT22;13141;50.414;8.050;2023-01-15T12:48:34;10.60;97.90
25188;DHT22;13141;50.414;8.050;2023-01-15T12:50:46;10.50;98.00
25188;DHT22;13141;50.414;8.050;2023-01-15T12:53:43;10.30;98.10
25188;DHT22;13141;50.414;8.050;2023-01-15T12:56:40;10.60;98.60
25188;DHT22;13141;50.414;8.050;2023-01-15T12:59:35;10.90;98.20
25188;DHT22;13141;50.414;8.050;2023-01-15T13:02:21;11.10;98.50
25188;DHT22;13141;50.414;8.050;2023-01-15T13:08:07;11.20;97.70
25188;DHT22;13141;50.414;8.050;2023-01-15T13:10:34;11.00;97.40
25188;DHT22;13141;50.414;8.050;2023-01-15T13:13:28;11.10;97.60
25188;DHT22;13141;50.414;8.050;2023-01-15T13:21:13;10.80;97.30
25188;DHT22;13141;50.414;8.050;2023-01-15T13:23:52;10.90;97.70
25188;DHT22;13141;50.414;8.050;2023-01-15T13:34:35;10.80;96.20
25188;DHT22;13141;50.414;8.050;2023-01-15T13:39:50;10.90;96.70
25188;DHT22;13141;50.414;8.050;2023-01-15T13:42:21;11.10;96.10
25188;DHT22;13141;50.414;8.050;2023-01-15T13:45:18;11.20;96.40
25188;DHT22;13141;50.414;8.050;2023-01-15T13:47:48;11.00;96.20
25188;DHT22;13141;50.414;8.050;2023-01-15T13:50:35;10.90;95.60
25188;DHT22;13141;50.414;8.050;2023-01-15T13:53:30;11.00;95.60
25188;DHT22;13141;50.414;8.050;2023-01-15T13:56:02;10.90;95.50
25188;DHT22;13141;50.414;8.050;2023-01-15T13:58:37;10.40;95.80
25188;DHT22;13141;50.414;8.050;2023-01-15T14:04:03;9.90;96.50
25188;DHT22;13141;50.414;8.050;2023-01-15T14:06:50;9.70;96.90
25188;DHT22;13141;50.414;8.050;2023-01-15T14:12:11;9.40;97.90
25188;DHT22;13141;50.414;8.050;2023-01-15T14:15:17;9.30;98.40
25188;DHT22;13141;50.414;8.050;2023-01-15T14:18:15;9.30;98.00
25188;DHT22;13141;50.414;8.050;2023-01-15T14:36:45;10.70;95.30
25188;DHT22;13141;50.414;8.050;2023-01-15T14:39:39;10.50;96.70
25188;DHT22;13141;50.414;8.050;2023-01-15T14:42:14;10.10;96.80
25188;DHT22;13141;50.414;8.050;2023-01-15T14:45:02;9.90;97.60
25188;DHT22;13141;50.414;8.050;2023-01-15T14:47:56;9.80;98.00
25188;DHT22;13141;50.414;8.050;2023-01-15T14:50:30;9.60;97.70
25188;DHT22;13141;50.414;8.050;2023-01-15T14:55:48;9.30;98.00
25188;DHT22;13141;50.414;8.050;2023-01-15T14:58:43;9.20;98.70
25188;DHT22;13141;50.414;8.050;2023-01-15T15:06:57;9.10;99.00
25188;DHT22;13141;50.414;8.050;2023-01-15T15:09:41;9.00;99.00
25188;DHT22;13141;50.414;8.050;2023-01-15T15:12:25;8.90;99.30
25188;DHT22;13141;50.414;8.050;2023-01-15T15:15:11;8.90;98.90
25188;DHT22;13141;50.414;8.050;2023-01-15T15:23:14;8.70;99.30
25188;DHT22;13141;50.414;8.050;2023-01-15T15:25:40;8.60;99.90
25188;DHT22;13141;50.414;8.050;2023-01-15T15:28:10;8.50;99.90
25188;DHT22;13141;50.414;8.050;2023-01-15T15:30:42;8.50;99.90
25188;DHT22;13141;50.414;8.050;2023-01-15T15:33:16;8.40;99.90
25188;DHT22;13141;50.414;8.050;2023-01-15T15:35:49;8.40;99.90
25188;DHT22;13141;50.414;8.050;2023-01-15T15:38:19;8.40;99.90
25188;DHT22;13141;50.414;8.050;2023-01-15T15:40:53;8.20;99.90
25188;DHT22;13141;50.414;8.050;2023-01-15T15:43:50;8.30;99.90
25188;DHT22;13141;50.414;8.050;2023-01-15T15:46:35;8.40;99.90
25188;DHT22;13141;50.414;8.050;2023-01-15T15:49:21;8.30;99.90
25188;DHT22;13141;50.414;8.050;2023-01-15T15:51:51;8.30;99.90
25188;DHT22;13141;50.414;8.050;2023-01-15T15:54:24;8.30;99.90
25188;DHT22;13141;50.414;8.050;2023-01-15T15:57:09;8.20;99.90
25188;DHT22;13141;50.414;8.050;2023-01-15T15:59:43;8.20;99.90
25188;DHT22;13141;50.414;8.050;2023-01-15T16:02:24;8.10;99.90
25188;DHT22;13141;50.414;8.050;2023-01-15T16:04:55;8.10;99.90
25188;DHT22;13141;50.414;8.050;2023-01-15T16:07:24;8.10;99.90
25188;DHT22;13141;50.414;8.050;2023-01-15T16:10:11;8.10;99.90
25188;DHT22;13141;50.414;8.050;2023-01-15T16:12:43;7.90;99.90
25188;DHT22;13141;50.414;8.050;2023-01-15T16:15:15;8.00;99.90
25188;DHT22;13141;50.414;8.050;2023-01-15T16:17:42;8.00;99.90
25188;DHT22;13141;50.414;8.050;2023-01-15T16:20:16;8.00;99.90
25188;DHT22;13141;50.414;8.050;2023-01-15T16:23:04;8.00;99.90
25188;DHT22;13141;50.414;8.050;2023-01-15T16:25:33;8.00;99.90
25188;DHT22;13141;50.414;8.050;2023-01-15T16:28:00;8.10;99.90
25188;DHT22;13141;50.414;8.050;2023-01-15T16:30:27;7.90;99.90
25188;DHT22;13141;50.414;8.050;2023-01-15T16:32:54;7.80;99.90
25188;DHT22;13141;50.414;8.050;2023-01-15T16:35:24;7.70;99.90
25188;DHT22;13141;50.414;8.050;2023-01-15T16:37:55;7.90;99.90
25188;DHT22;13141;50.414;8.050;2023-01-15T16:43:10;7.90;99.90
25188;DHT22;13141;50.414;8.050;2023-01-15T16:48:31;7.80;99.90
25188;DHT22;13141;50.414;8.050;2023-01-15T16:51:31;7.70;99.90
25188;DHT22;13141;50.414;8.050;2023-01-15T16:53:58;7.80;99.90
25188;DHT22;13141;50.414;8.050;2023-01-15T16:59:05;7.70;99.90
25188;DHT22;13141;50.414;8.050;2023-01-15T17:01:44;7.70;99.90
25188;DHT22;13141;50.414;8.050;2023-01-15T17:04:33;7.50;99.90
25188;DHT22;13141;50.414;8.050;2023-01-15T17:07:25;7.70;99.90
25188;DHT22;13141;50.414;8.050;2023-01-15T17:09:57;7.60;99.90
25188;DHT22;13141;50.414;8.050;2023-01-15T17:12:36;7.60;99.90
25188;DHT22;13141;50.414;8.050;2023-01-15T17:17:41;7.40;99.90
25188;DHT22;13141;50.414;8.050;2023-01-15T17:20:09;7.40;99.90
25188;DHT22;13141;50.414;8.050;2023-01-15T17:22:35;7.40;99.90
25188;DHT22;13141;50.414;8.050;2023-01-15T17:25:02;7.40;99.90
25188;DHT22;13141;50.414;8.050;2023-01-15T17:27:44;7.40;99.90
25188;DHT22;13141;50.414;8.050;2023-01-15T17:30:11;7.30;99.90
25188;DHT22;13141;50.414;8.050;2023-01-15T17:32:37;7.40;99.90
25188;DHT22;13141;50.414;8.050;2023-01-15T17:35:05;7.30;99.90
25188;DHT22;13141;50.414;8.050;2023-01-15T17:37:31;7.30;99.90
25188;DHT22;13141;50.414;8.050;2023-01-15T17:39:57;7.20;99.90
25188;DHT22;13141;50.414;8.050;2023-01-15T17:42:22;7.10;99.90
25188;DHT22;13141;50.414;8.050;2023-01-15T17:44:48;7.20;99.90
25188;DHT22;13141;50.414;8.050;2023-01-15T17:47:13;7.20;99.90
25188;DHT22;13141;50.414;8.050;2023-01-15T17:49:40;7.30;99.90
25188;DHT22;13141;50.414;8.050;2023-01-15T17:52:07;7.30;99.90
25188;DHT22;13141;50.414;8.050;2023-01-15T17:54:37;7.30;99.90
25188;DHT22;13141;50.414;8.050;2023-01-15T17:57:21;7.20;99.90
25188;DHT22;13141;50.414;8.050;2023-01-15T18:00:07;7.10;99.90
25188;DHT22;13141;50.414;8.050;2023-01-15T18:02:52;7.00;99.90
25188;DHT22;13141;50.414;8.050;2023-01-15T18:05:37;7.00;99.90
25188;DHT22;13141;50.414;8.050;2023-01-15T18:08:04;7.00;99.90
25188;DHT22;13141;50.414;8.050;2023-01-15T18:10:33;6.90;99.90
25188;DHT22;13141;50.414;8.050;2023-01-15T18:12:58;6.90;99.90
25188;DHT22;13141;50.414;8.050;2023-01-15T18:15:26;6.90;99.90
25188;DHT22;13141;50.414;8.050;2023-01-15T18:17:51;6.90;99.90
25188;DHT22;13141;50.414;8.050;2023-01-15T18:20:17;7.10;99.90
25188;DHT22;13141;50.414;8.050;2023-01-15T18:22:43;6.80;99.90
25188;DHT22;13141;50.414;8.050;2023-01-15T18:25:09;6.70;99.90